sensor_id;sensor_type;location;lat;lon;timestamp;pressure;altitude;pressure_sealevel;temperature
70050;BMP180;57391;51.306;22.680;2023-08-21T00:00:14;100095.40;;;23.70
70050;BMP180;57391;51.306;22.680;2023-08-21T00:03:01;100091.60;;;23.70
70050;BMP180;57391;51.306;22.680;2023-08-21T00:05:28;100089.40;;;23.70
70050;BMP180;57391;51.306;22.680;2023-08-21T00:07:55;100086.40;;;23.76
70050;BMP180;57391;51.306;22.680;2023-08-21T00:10:21;100086.00;;;23.70
70050;BMP180;57391;51.306;22.680;2023-08-21T00:12:48;100087.20;;;23.70
70050;BMP180;57391;51.306;22.680;2023-08-21T00:15:15;100088.40;;;23.70
70050;BMP180;57391;51.306;22.680;2023-08-21T00:17:42;100085.20;;;23.70
70050;BMP180;57391;51.306;22.680;2023-08-21T00:20:10;100082.80;;;23.70
70050;BMP180;57391;51.306;22.680;2023-08-21T00:22:37;100083.40;;;23.70
70050;BMP180;57391;51.306;22.680;2023-08-21T00:25:04;100085.60;;;23.70
70050;BMP180;57391;51.306;22.680;2023-08-21T00:27:31;100085.60;;;23.68
70050;BMP180;57391;51.306;22.680;2023-08-21T00:30:00;100080.20;;;23.60
70050;BMP180;57391;51.306;22.680;2023-08-21T00:32:27;100086.80;;;23.60
70050;BMP180;57391;51.306;22.680;2023-08-21T00:34:54;100081.60;;;23.60
70050;BMP180;57391;51.306;22.680;2023-08-21T00:37:21;100087.00;;;23.60
70050;BMP180;57391;51.306;22.680;2023-08-21T00:39:48;100084.80;;;23.60
70050;BMP180;57391;51.306;22.680;2023-08-21T00:42:14;100086.20;;;23.58
70050;BMP180;57391;51.306;22.680;2023-08-21T00:44:42;100078.80;;;23.50
70050;BMP180;57391;51.306;22.680;2023-08-21T00:47:10;100081.40;;;23.50
70050;BMP180;57391;51.306;22.680;2023-08-21T00:49:38;100082.60;;;23.50
70050;BMP180;57391;51.306;22.680;2023-08-21T00:52:13;100086.80;;;23.46
70050;BMP180;57391;51.306;22.680;2023-08-21T00:54:42;100083.00;;;23.44
70050;BMP180;57391;51.306;22.680;2023-08-21T00:57:10;100079.60;;;23.40
70050;BMP180;57391;51.306;22.680;2023-08-21T00:59:41;100083.20;;;23.40
70050;BMP180;57391;51.306;22.680;2023-08-21T01:02:08;100087.00;;;23.40
70050;BMP180;57391;51.306;22.680;2023-08-21T01:04:35;100090.00;;;23.36
70050;BMP180;57391;51.306;22.680;2023-08-21T01:07:02;100088.00;;;23.30
70050;BMP180;57391;51.306;22.680;2023-08-21T01:12:37;100085.80;;;23.30
70050;BMP180;57391;51.306;22.680;2023-08-21T01:15:07;100090.20;;;23.30
70050;BMP180;57391;51.306;22.680;2023-08-21T01:17:38;100090.60;;;23.20
70050;BMP180;57391;51.306;22.680;2023-08-21T01:20:08;100091.00;;;23.20
70050;BMP180;57391;51.306;22.680;2023-08-21T01:22:41;100089.20;;;23.20
70050;BMP180;57391;51.306;22.680;2023-08-21T01:25:16;100088.40;;;23.14
70050;BMP180;57391;51.306;22.680;2023-08-21T01:27:50;100091.00;;;23.10
70050;BMP180;57391;51.306;22.680;2023-08-21T01:30:17;100090.00;;;23.10
70050;BMP180;57391;51.306;22.680;2023-08-21T01:33:10;100092.40;;;23.10
70050;BMP180;57391;51.306;22.680;2023-08-21T01:35:40;100088.40;;;23.00
70050;BMP180;57391;51.306;22.680;2023-08-21T01:38:07;100092.60;;;23.00
70050;BMP180;57391;51.306;22.680;2023-08-21T01:40:34;100095.60;;;22.96
70050;BMP180;57391;51.306;22.680;2023-08-21T01:43:01;100092.60;;;22.90
70050;BMP180;57391;51.306;22.680;2023-08-21T01:45:28;100092.60;;;22.80
70050;BMP180;57391;51.306;22.680;2023-08-21T01:47:54;100089.80;;;22.80
70050;BMP180;57391;51.306;22.680;2023-08-21T01:50:21;100094.80;;;22.70
70050;BMP180;57391;51.306;22.680;2023-08-21T01:52:48;100094.00;;;22.68
70050;BMP180;57391;51.306;22.680;2023-08-21T01:55:15;100096.60;;;22.60
70050;BMP180;57391;51.306;22.680;2023-08-21T01:57:42;100098.00;;;22.60
70050;BMP180;57391;51.306;22.680;2023-08-21T02:00:09;100096.40;;;22.50
70050;BMP180;57391;51.306;22.680;2023-08-21T02:02:42;100096.40;;;22.50
70050;BMP180;57391;51.306;22.680;2023-08-21T02:05:09;100095.80;;;22.50
70050;BMP180;57391;51.306;22.680;2023-08-21T02:07:36;100099.80;;;22.50
70050;BMP180;57391;51.306;22.680;2023-08-21T02:10:03;100101.20;;;22.50
70050;BMP180;57391;51.306;22.680;2023-08-21T02:12:31;100098.20;;;22.40
70050;BMP180;57391;51.306;22.680;2023-08-21T02:14:58;100097.60;;;22.40
70050;BMP180;57391;51.306;22.680;2023-08-21T02:17:28;100098.80;;;22.40
70050;BMP180;57391;51.306;22.680;2023-08-21T02:19:54;100100.80;;;22.40
70050;BMP180;57391;51.306;22.680;2023-08-21T02:22:21;100097.40;;;22.40
70050;BMP180;57391;51.306;22.680;2023-08-21T02:24:48;100092.40;;;22.40
70050;BMP180;57391;51.306;22.680;2023-08-21T02:27:15;100096.40;;;22.38
70050;BMP180;57391;51.306;22.680;2023-08-21T02:29:42;100098.40;;;22.30
70050;BMP180;57391;51.306;22.680;2023-08-21T02:32:08;100101.00;;;22.30
70050;BMP180;57391;51.306;22.680;2023-08-21T02:34:35;100103.40;;;22.30
70050;BMP180;57391;51.306;22.680;2023-08-21T02:37:02;100106.00;;;22.20
70050;BMP180;57391;51.306;22.680;2023-08-21T02:39:29;100106.00;;;22.20
70050;BMP180;57391;51.306;22.680;2023-08-21T02:41:56;100105.00;;;22.20
70050;BMP180;57391;51.306;22.680;2023-08-21T02:44:23;100107.20;;;22.20
70050;BMP180;57391;51.306;22.680;2023-08-21T02:46:50;100107.20;;;22.10
70050;BMP180;57391;51.306;22.680;2023-08-21T02:49:16;100106.20;;;22.10
70050;BMP180;57391;51.306;22.680;2023-08-21T02:51:43;100103.80;;;22.02
70050;BMP180;57391;51.306;22.680;2023-08-21T02:54:11;100105.20;;;22.00
70050;BMP180;57391;51.306;22.680;2023-08-21T02:56:38;100105.00;;;22.00
70050;BMP180;57391;51.306;22.680;2023-08-21T02:59:05;100108.80;;;21.90
70050;BMP180;57391;51.306;22.680;2023-08-21T03:01:32;100104.60;;;21.90
70050;BMP180;57391;51.306;22.680;2023-08-21T03:03:58;100108.80;;;21.90
70050;BMP180;57391;51.306;22.680;2023-08-21T03:06:25;100107.00;;;21.90
70050;BMP180;57391;51.306;22.680;2023-08-21T03:08:52;100105.40;;;21.90
70050;BMP180;57391;51.306;22.680;2023-08-21T03:11:19;100103.80;;;21.80
70050;BMP180;57391;51.306;22.680;2023-08-21T03:13:46;100107.00;;;21.80
70050;BMP180;57391;51.306;22.680;2023-08-21T03:16:13;100104.40;;;21.80
70050;BMP180;57391;51.306;22.680;2023-08-21T03:18:58;100099.00;;;21.80
70050;BMP180;57391;51.306;22.680;2023-08-21T03:21:27;100101.40;;;21.70
70050;BMP180;57391;51.306;22.680;2023-08-21T03:23:57;100103.40;;;21.70
70050;BMP180;57391;51.306;22.680;2023-08-21T03:26:25;100103.00;;;21.70
70050;BMP180;57391;51.306;22.680;2023-08-21T03:28:52;100101.00;;;21.70
70050;BMP180;57391;51.306;22.680;2023-08-21T03:31:19;100102.00;;;21.70
70050;BMP180;57391;51.306;22.680;2023-08-21T03:33:45;100102.40;;;21.70
70050;BMP180;57391;51.306;22.680;2023-08-21T03:36:13;100102.60;;;21.70
70050;BMP180;57391;51.306;22.680;2023-08-21T03:38:41;100102.00;;;21.70
70050;BMP180;57391;51.306;22.680;2023-08-21T03:41:08;100107.40;;;21.70
70050;BMP180;57391;51.306;22.680;2023-08-21T03:43:35;100105.00;;;21.70
70050;BMP180;57391;51.306;22.680;2023-08-21T03:46:03;100103.80;;;21.70
70050;BMP180;57391;51.306;22.680;2023-08-21T03:48:30;100104.40;;;21.70
70050;BMP180;57391;51.306;22.680;2023-08-21T03:50:57;100099.40;;;21.70
70050;BMP180;57391;51.306;22.680;2023-08-21T03:53:25;100103.60;;;21.70
70050;BMP180;57391;51.306;22.680;2023-08-21T03:55:52;100102.60;;;21.72
70050;BMP180;57391;51.306;22.680;2023-08-21T03:58:19;100091.00;;;21.94
70050;BMP180;57391;51.306;22.680;2023-08-21T04:00:46;100091.40;;;22.46
70050;BMP180;57391;51.306;22.680;2023-08-21T04:03:13;100093.40;;;23.08
70050;BMP180;57391;51.306;22.680;2023-08-21T04:05:40;100091.00;;;23.84
70050;BMP180;57391;51.306;22.680;2023-08-21T04:08:07;100093.40;;;24.58
70050;BMP180;57391;51.306;22.680;2023-08-21T04:10:34;100093.20;;;25.34
70050;BMP180;57391;51.306;22.680;2023-08-21T04:13:01;100097.00;;;26.08
70050;BMP180;57391;51.306;22.680;2023-08-21T04:15:27;100094.00;;;26.82
70050;BMP180;57391;51.306;22.680;2023-08-21T04:17:54;100093.80;;;27.50
70050;BMP180;57391;51.306;22.680;2023-08-21T04:20:21;100088.20;;;28.12
70050;BMP180;57391;51.306;22.680;2023-08-21T04:22:49;100085.80;;;28.82
70050;BMP180;57391;51.306;22.680;2023-08-21T04:25:16;100089.80;;;29.52
70050;BMP180;57391;51.306;22.680;2023-08-21T04:27:45;100086.60;;;30.18
70050;BMP180;57391;51.306;22.680;2023-08-21T04:30:12;100089.40;;;30.92
70050;BMP180;57391;51.306;22.680;2023-08-21T04:32:39;100090.80;;;31.66
70050;BMP180;57391;51.306;22.680;2023-08-21T04:35:07;100092.00;;;32.24
70050;BMP180;57391;51.306;22.680;2023-08-21T04:37:43;100091.60;;;32.88
70050;BMP180;57391;51.306;22.680;2023-08-21T04:40:12;100098.40;;;33.64
70050;BMP180;57391;51.306;22.680;2023-08-21T04:42:39;100101.20;;;34.30
70050;BMP180;57391;51.306;22.680;2023-08-21T04:45:06;100110.80;;;34.88
70050;BMP180;57391;51.306;22.680;2023-08-21T04:47:35;100112.20;;;35.38
70050;BMP180;57391;51.306;22.680;2023-08-21T04:50:03;100118.40;;;35.84
70050;BMP180;57391;51.306;22.680;2023-08-21T04:52:30;100119.80;;;36.24
70050;BMP180;57391;51.306;22.680;2023-08-21T04:54:57;100126.20;;;36.20
70050;BMP180;57391;51.306;22.680;2023-08-21T04:57:24;100122.60;;;36.00
70050;BMP180;57391;51.306;22.680;2023-08-21T04:59:51;100129.00;;;35.60
70050;BMP180;57391;51.306;22.680;2023-08-21T05:02:18;100122.40;;;34.98
70050;BMP180;57391;51.306;22.680;2023-08-21T05:04:47;100127.20;;;34.40
70050;BMP180;57391;51.306;22.680;2023-08-21T05:07:14;100127.00;;;33.84
70050;BMP180;57391;51.306;22.680;2023-08-21T05:09:40;100121.40;;;33.50
70050;BMP180;57391;51.306;22.680;2023-08-21T05:12:08;100115.00;;;32.98
70050;BMP180;57391;51.306;22.680;2023-08-21T05:14:35;100110.20;;;32.90
70050;BMP180;57391;51.306;22.680;2023-08-21T05:17:03;100110.40;;;33.10
70050;BMP180;57391;51.306;22.680;2023-08-21T05:19:30;100113.40;;;33.10
70050;BMP180;57391;51.306;22.680;2023-08-21T05:21:57;100115.80;;;32.70
70050;BMP180;57391;51.306;22.680;2023-08-21T05:24:24;100117.00;;;32.20
70050;BMP180;57391;51.306;22.680;2023-08-21T05:26:57;100123.20;;;31.70
70050;BMP180;57391;51.306;22.680;2023-08-21T05:29:24;100125.00;;;31.30
70050;BMP180;57391;51.306;22.680;2023-08-21T05:31:51;100122.40;;;30.98
70050;BMP180;57391;51.306;22.680;2023-08-21T05:34:18;100124.60;;;30.68
70050;BMP180;57391;51.306;22.680;2023-08-21T05:36:45;100122.60;;;30.40
70050;BMP180;57391;51.306;22.680;2023-08-21T05:39:12;100125.80;;;30.20
70050;BMP180;57391;51.306;22.680;2023-08-21T05:41:39;100126.60;;;30.00
70050;BMP180;57391;51.306;22.680;2023-08-21T05:44:06;100126.20;;;29.80
70050;BMP180;57391;51.306;22.680;2023-08-21T05:46:33;100129.20;;;29.70
70050;BMP180;57391;51.306;22.680;2023-08-21T05:49:00;100132.60;;;29.50
70050;BMP180;57391;51.306;22.680;2023-08-21T05:51:27;100135.40;;;29.40
70050;BMP180;57391;51.306;22.680;2023-08-21T05:53:54;100134.60;;;29.20
70050;BMP180;57391;51.306;22.680;2023-08-21T05:56:22;100133.80;;;29.10
70050;BMP180;57391;51.306;22.680;2023-08-21T05:58:49;100135.60;;;29.00
70050;BMP180;57391;51.306;22.680;2023-08-21T06:01:16;100138.00;;;29.00
70050;BMP180;57391;51.306;22.680;2023-08-21T06:03:43;100139.80;;;28.90
70050;BMP180;57391;51.306;22.680;2023-08-21T06:06:30;100143.60;;;28.90
70050;BMP180;57391;51.306;22.680;2023-08-21T06:08:57;100148.60;;;28.80
70050;BMP180;57391;51.306;22.680;2023-08-21T06:11:24;100146.00;;;28.70
70050;BMP180;57391;51.306;22.680;2023-08-21T06:13:50;100147.60;;;28.70
70050;BMP180;57391;51.306;22.680;2023-08-21T06:16:17;100144.80;;;28.70
70050;BMP180;57391;51.306;22.680;2023-08-21T06:18:44;100143.40;;;28.70
70050;BMP180;57391;51.306;22.680;2023-08-21T06:21:12;100145.60;;;28.60
70050;BMP180;57391;51.306;22.680;2023-08-21T06:23:38;100146.00;;;28.60
70050;BMP180;57391;51.306;22.680;2023-08-21T06:26:06;100146.60;;;28.60
70050;BMP180;57391;51.306;22.680;2023-08-21T06:28:33;100145.20;;;28.60
70050;BMP180;57391;51.306;22.680;2023-08-21T06:30:59;100150.00;;;28.68
70050;BMP180;57391;51.306;22.680;2023-08-21T06:33:30;100147.20;;;28.70
70050;BMP180;57391;51.306;22.680;2023-08-21T06:35:57;100146.80;;;28.70
70050;BMP180;57391;51.306;22.680;2023-08-21T06:38:24;100148.20;;;28.78
70050;BMP180;57391;51.306;22.680;2023-08-21T06:40:51;100150.20;;;28.80
70050;BMP180;57391;51.306;22.680;2023-08-21T06:43:18;100153.00;;;28.80
70050;BMP180;57391;51.306;22.680;2023-08-21T06:45:47;100156.60;;;28.90
70050;BMP180;57391;51.306;22.680;2023-08-21T06:48:14;100161.20;;;28.90
70050;BMP180;57391;51.306;22.680;2023-08-21T06:50:41;100157.80;;;29.00
70050;BMP180;57391;51.306;22.680;2023-08-21T06:53:07;100163.80;;;29.00
70050;BMP180;57391;51.306;22.680;2023-08-21T06:55:34;100165.40;;;29.04
70050;BMP180;57391;51.306;22.680;2023-08-21T06:58:01;100163.80;;;29.10
70050;BMP180;57391;51.306;22.680;2023-08-21T07:00:28;100165.60;;;29.10
70050;BMP180;57391;51.306;22.680;2023-08-21T07:02:55;100168.60;;;29.12
70050;BMP180;57391;51.306;22.680;2023-08-21T07:05:22;100169.40;;;29.20
70050;BMP180;57391;51.306;22.680;2023-08-21T07:07:49;100169.00;;;29.30
70050;BMP180;57391;51.306;22.680;2023-08-21T07:10:16;100169.60;;;29.40
70050;BMP180;57391;51.306;22.680;2023-08-21T07:12:42;100170.80;;;29.40
70050;BMP180;57391;51.306;22.680;2023-08-21T07:15:10;100170.40;;;29.44
70050;BMP180;57391;51.306;22.680;2023-08-21T07:17:37;100171.40;;;29.50
70050;BMP180;57391;51.306;22.680;2023-08-21T07:20:04;100173.00;;;29.50
70050;BMP180;57391;51.306;22.680;2023-08-21T07:22:31;100176.80;;;29.60
70050;BMP180;57391;51.306;22.680;2023-08-21T07:24:58;100177.60;;;29.60
70050;BMP180;57391;51.306;22.680;2023-08-21T07:27:31;100173.60;;;29.70
70050;BMP180;57391;51.306;22.680;2023-08-21T07:29:58;100167.60;;;29.80
70050;BMP180;57391;51.306;22.680;2023-08-21T07:32:24;100166.80;;;29.88
70050;BMP180;57391;51.306;22.680;2023-08-21T07:34:53;100167.40;;;29.92
70050;BMP180;57391;51.306;22.680;2023-08-21T07:37:21;100166.40;;;30.02
70050;BMP180;57391;51.306;22.680;2023-08-21T07:39:47;100165.20;;;30.10
70050;BMP180;57391;51.306;22.680;2023-08-21T07:42:14;100166.20;;;30.20
70050;BMP180;57391;51.306;22.680;2023-08-21T07:44:41;100164.20;;;30.20
70050;BMP180;57391;51.306;22.680;2023-08-21T07:47:08;100166.00;;;30.30
70050;BMP180;57391;51.306;22.680;2023-08-21T07:49:36;100166.60;;;30.40
70050;BMP180;57391;51.306;22.680;2023-08-21T07:52:03;100161.80;;;30.50
70050;BMP180;57391;51.306;22.680;2023-08-21T07:54:31;100171.60;;;30.60
70050;BMP180;57391;51.306;22.680;2023-08-21T07:56:58;100171.40;;;30.70
70050;BMP180;57391;51.306;22.680;2023-08-21T07:59:25;100170.20;;;30.80
70050;BMP180;57391;51.306;22.680;2023-08-21T08:01:52;100170.00;;;30.92
70050;BMP180;57391;51.306;22.680;2023-08-21T08:04:19;100163.80;;;31.00
70050;BMP180;57391;51.306;22.680;2023-08-21T08:06:47;100161.80;;;31.10
70050;BMP180;57391;51.306;22.680;2023-08-21T08:09:14;100152.80;;;31.20
70050;BMP180;57391;51.306;22.680;2023-08-21T08:11:41;100148.80;;;31.32
70050;BMP180;57391;51.306;22.680;2023-08-21T08:14:08;100150.80;;;31.46
70050;BMP180;57391;51.306;22.680;2023-08-21T08:16:34;100148.20;;;31.56
70050;BMP180;57391;51.306;22.680;2023-08-21T08:19:01;100155.40;;;31.60
70050;BMP180;57391;51.306;22.680;2023-08-21T08:21:28;100157.60;;;31.68
70050;BMP180;57391;51.306;22.680;2023-08-21T08:23:56;100156.60;;;31.80
70050;BMP180;57391;51.306;22.680;2023-08-21T08:26:24;100162.80;;;32.00
70050;BMP180;57391;51.306;22.680;2023-08-21T08:28:50;100162.60;;;32.18
70050;BMP180;57391;51.306;22.680;2023-08-21T08:31:18;100161.80;;;32.30
70050;BMP180;57391;51.306;22.680;2023-08-21T08:33:45;100165.80;;;32.44
70050;BMP180;57391;51.306;22.680;2023-08-21T08:36:12;100168.80;;;32.60
70050;BMP180;57391;51.306;22.680;2023-08-21T08:38:39;100167.60;;;32.76
70050;BMP180;57391;51.306;22.680;2023-08-21T08:43:47;100166.40;;;33.10
70050;BMP180;57391;51.306;22.680;2023-08-21T08:46:14;100163.80;;;33.10
70050;BMP180;57391;51.306;22.680;2023-08-21T08:48:41;100161.40;;;33.20
70050;BMP180;57391;51.306;22.680;2023-08-21T08:51:09;100158.00;;;33.30
70050;BMP180;57391;51.306;22.680;2023-08-21T08:53:36;100164.20;;;33.40
70050;BMP180;57391;51.306;22.680;2023-08-21T08:56:04;100160.40;;;33.30
70050;BMP180;57391;51.306;22.680;2023-08-21T08:58:31;100159.60;;;33.30
70050;BMP180;57391;51.306;22.680;2023-08-21T09:00:58;100156.40;;;33.30
70050;BMP180;57391;51.306;22.680;2023-08-21T09:03:29;100154.60;;;33.30
70050;BMP180;57391;51.306;22.680;2023-08-21T09:05:56;100157.40;;;33.30
70050;BMP180;57391;51.306;22.680;2023-08-21T09:08:27;100156.20;;;33.30
70050;BMP180;57391;51.306;22.680;2023-08-21T09:10:53;100160.20;;;33.30
70050;BMP180;57391;51.306;22.680;2023-08-21T09:13:20;100160.20;;;33.20
70050;BMP180;57391;51.306;22.680;2023-08-21T09:15:53;100153.20;;;33.20
70050;BMP180;57391;51.306;22.680;2023-08-21T09:18:20;100150.00;;;33.20
70050;BMP180;57391;51.306;22.680;2023-08-21T09:20:47;100147.80;;;33.30
70050;BMP180;57391;51.306;22.680;2023-08-21T09:23:17;100148.80;;;33.40
70050;BMP180;57391;51.306;22.680;2023-08-21T09:25:48;100146.60;;;33.38
70050;BMP180;57391;51.306;22.680;2023-08-21T09:28:20;100147.60;;;33.20
70050;BMP180;57391;51.306;22.680;2023-08-21T09:30:52;100146.20;;;33.00
70050;BMP180;57391;51.306;22.680;2023-08-21T09:33:23;100150.20;;;32.80
70050;BMP180;57391;51.306;22.680;2023-08-21T09:35:52;100147.80;;;32.60
70050;BMP180;57391;51.306;22.680;2023-08-21T09:38:19;100149.00;;;32.40
70050;BMP180;57391;51.306;22.680;2023-08-21T09:40:54;100151.00;;;32.12
70050;BMP180;57391;51.306;22.680;2023-08-21T09:43:23;100152.20;;;31.90
70050;BMP180;57391;51.306;22.680;2023-08-21T09:45:55;100160.20;;;31.70
70050;BMP180;57391;51.306;22.680;2023-08-21T09:48:24;100156.80;;;31.50
70050;BMP180;57391;51.306;22.680;2023-08-21T09:50:51;100159.00;;;31.24
70050;BMP180;57391;51.306;22.680;2023-08-21T09:53:21;100163.00;;;31.06
70050;BMP180;57391;51.306;22.680;2023-08-21T09:55:53;100161.20;;;30.90
70050;BMP180;57391;51.306;22.680;2023-08-21T09:58:21;100166.60;;;30.70
70050;BMP180;57391;51.306;22.680;2023-08-21T10:00:50;100171.20;;;30.60
70050;BMP180;57391;51.306;22.680;2023-08-21T10:03:22;100166.00;;;30.50
70050;BMP180;57391;51.306;22.680;2023-08-21T10:05:51;100170.60;;;30.40
70050;BMP180;57391;51.306;22.680;2023-08-21T10:08:25;100168.40;;;30.26
70050;BMP180;57391;51.306;22.680;2023-08-21T10:10:54;100163.00;;;30.16
70050;BMP180;57391;51.306;22.680;2023-08-21T10:13:22;100167.80;;;30.00
70050;BMP180;57391;51.306;22.680;2023-08-21T10:15:50;100171.60;;;29.90
70050;BMP180;57391;51.306;22.680;2023-08-21T10:18:32;100172.00;;;29.80
70050;BMP180;57391;51.306;22.680;2023-08-21T10:21:17;100172.00;;;29.70
70050;BMP180;57391;51.306;22.680;2023-08-21T10:23:51;100172.00;;;29.50
70050;BMP180;57391;51.306;22.680;2023-08-21T10:26:22;100166.20;;;29.40
70050;BMP180;57391;51.306;22.680;2023-08-21T10:28:51;100163.60;;;29.30
70050;BMP180;57391;51.306;22.680;2023-08-21T10:33:59;100166.60;;;29.10
70050;BMP180;57391;51.306;22.680;2023-08-21T10:39:24;100156.40;;;28.90
70050;BMP180;57391;51.306;22.680;2023-08-21T10:47:23;100169.80;;;28.80
70050;BMP180;57391;51.306;22.680;2023-08-21T10:50:00;100168.20;;;28.70
70050;BMP180;57391;51.306;22.680;2023-08-21T10:52:35;100160.80;;;28.70
70050;BMP180;57391;51.306;22.680;2023-08-21T10:55:03;100167.20;;;28.70
70050;BMP180;57391;51.306;22.680;2023-08-21T10:57:32;100163.80;;;28.70
70050;BMP180;57391;51.306;22.680;2023-08-21T11:00:06;100165.20;;;28.60
70050;BMP180;57391;51.306;22.680;2023-08-21T11:02:49;100169.60;;;28.60
70050;BMP180;57391;51.306;22.680;2023-08-21T11:05:17;100163.80;;;28.58
70050;BMP180;57391;51.306;22.680;2023-08-21T11:07:47;100159.80;;;28.50
70050;BMP180;57391;51.306;22.680;2023-08-21T11:10:17;100161.60;;;28.50
70050;BMP180;57391;51.306;22.680;2023-08-21T11:12:56;100161.00;;;28.50
70050;BMP180;57391;51.306;22.680;2023-08-21T11:15:25;100160.80;;;28.50
70050;BMP180;57391;51.306;22.680;2023-08-21T11:20:31;100166.60;;;28.50
70050;BMP180;57391;51.306;22.680;2023-08-21T11:23:04;100170.60;;;28.50
70050;BMP180;57391;51.306;22.680;2023-08-21T11:25:38;100161.00;;;28.52
70050;BMP180;57391;51.306;22.680;2023-08-21T11:28:06;100162.60;;;28.60
70050;BMP180;57391;51.306;22.680;2023-08-21T11:30:34;100167.40;;;28.60
70050;BMP180;57391;51.306;22.680;2023-08-21T11:35:38;100170.60;;;28.60
70050;BMP180;57391;51.306;22.680;2023-08-21T11:38:06;100168.20;;;28.66
70050;BMP180;57391;51.306;22.680;2023-08-21T11:40:36;100169.40;;;28.70
70050;BMP180;57391;51.306;22.680;2023-08-21T11:43:06;100166.60;;;28.70
70050;BMP180;57391;51.306;22.680;2023-08-21T11:45:35;100165.20;;;28.80
70050;BMP180;57391;51.306;22.680;2023-08-21T11:48:02;100169.80;;;28.90
70050;BMP180;57391;51.306;22.680;2023-08-21T11:50:29;100164.40;;;29.08
70050;BMP180;57391;51.306;22.680;2023-08-21T11:52:56;100159.20;;;29.28
70050;BMP180;57391;51.306;22.680;2023-08-21T11:55:23;100157.00;;;29.46
70050;BMP180;57391;51.306;22.680;2023-08-21T11:57:52;100149.40;;;29.70
70050;BMP180;57391;51.306;22.680;2023-08-21T12:00:28;100147.20;;;29.90
70050;BMP180;57391;51.306;22.680;2023-08-21T12:02:59;100148.20;;;30.10
70050;BMP180;57391;51.306;22.680;2023-08-21T12:05:28;100145.60;;;30.30
70050;BMP180;57391;51.306;22.680;2023-08-21T12:07:56;100147.80;;;30.40
70050;BMP180;57391;51.306;22.680;2023-08-21T12:10:28;100146.20;;;30.40
70050;BMP180;57391;51.306;22.680;2023-08-21T12:12:56;100146.60;;;30.30
70050;BMP180;57391;51.306;22.680;2023-08-21T12:15:23;100148.60;;;30.40
70050;BMP180;57391;51.306;22.680;2023-08-21T12:17:50;100145.20;;;30.40
70050;BMP180;57391;51.306;22.680;2023-08-21T12:20:17;100145.00;;;30.52
70050;BMP180;57391;51.306;22.680;2023-08-21T12:22:44;100146.40;;;30.70
70050;BMP180;57391;51.306;22.680;2023-08-21T12:25:11;100142.20;;;30.82
70050;BMP180;57391;51.306;22.680;2023-08-21T12:27:39;100142.80;;;30.90
70050;BMP180;57391;51.306;22.680;2023-08-21T12:30:07;100140.40;;;30.90
70050;BMP180;57391;51.306;22.680;2023-08-21T12:32:34;100135.00;;;30.80
70050;BMP180;57391;51.306;22.680;2023-08-21T12:35:01;100134.60;;;30.88
70050;BMP180;57391;51.306;22.680;2023-08-21T12:37:28;100136.80;;;30.86
70050;BMP180;57391;51.306;22.680;2023-08-21T12:39:55;100134.80;;;30.88
70050;BMP180;57391;51.306;22.680;2023-08-21T12:42:22;100135.60;;;30.80
70050;BMP180;57391;51.306;22.680;2023-08-21T12:44:49;100127.00;;;30.86
70050;BMP180;57391;51.306;22.680;2023-08-21T12:47:16;100132.80;;;30.90
70050;BMP180;57391;51.306;22.680;2023-08-21T12:49:43;100127.40;;;30.90
70050;BMP180;57391;51.306;22.680;2023-08-21T12:52:10;100130.20;;;30.90
70050;BMP180;57391;51.306;22.680;2023-08-21T12:54:39;100124.00;;;31.00
70050;BMP180;57391;51.306;22.680;2023-08-21T12:57:06;100122.60;;;31.00
70050;BMP180;57391;51.306;22.680;2023-08-21T12:59:34;100119.20;;;31.00
70050;BMP180;57391;51.306;22.680;2023-08-21T13:02:01;100121.80;;;31.00
70050;BMP180;57391;51.306;22.680;2023-08-21T13:04:28;100124.40;;;31.08
70050;BMP180;57391;51.306;22.680;2023-08-21T13:06:55;100121.20;;;31.10
70050;BMP180;57391;51.306;22.680;2023-08-21T13:09:22;100118.60;;;31.14
70050;BMP180;57391;51.306;22.680;2023-08-21T13:11:53;100116.80;;;31.14
70050;BMP180;57391;51.306;22.680;2023-08-21T13:14:20;100112.80;;;31.10
70050;BMP180;57391;51.306;22.680;2023-08-21T13:16:47;100107.20;;;31.10
70050;BMP180;57391;51.306;22.680;2023-08-21T13:19:14;100110.40;;;31.20
70050;BMP180;57391;51.306;22.680;2023-08-21T13:21:40;100101.20;;;31.22
70050;BMP180;57391;51.306;22.680;2023-08-21T13:24:07;100100.60;;;31.30
70050;BMP180;57391;51.306;22.680;2023-08-21T13:26:34;100099.00;;;31.30
70050;BMP180;57391;51.306;22.680;2023-08-21T13:29:01;100095.20;;;31.30
70050;BMP180;57391;51.306;22.680;2023-08-21T13:31:28;100097.40;;;31.30
70050;BMP180;57391;51.306;22.680;2023-08-21T13:33:55;100095.00;;;31.30
70050;BMP180;57391;51.306;22.680;2023-08-21T13:36:22;100095.80;;;31.30
70050;BMP180;57391;51.306;22.680;2023-08-21T13:38:49;100095.00;;;31.30
70050;BMP180;57391;51.306;22.680;2023-08-21T13:41:16;100099.80;;;31.30
70050;BMP180;57391;51.306;22.680;2023-08-21T13:43:43;100101.20;;;31.30
70050;BMP180;57391;51.306;22.680;2023-08-21T13:46:09;100095.80;;;31.30
70050;BMP180;57391;51.306;22.680;2023-08-21T13:48:36;100100.40;;;31.30
70050;BMP180;57391;51.306;22.680;2023-08-21T13:51:03;100094.80;;;31.30
70050;BMP180;57391;51.306;22.680;2023-08-21T13:53:30;100093.20;;;31.36
70050;BMP180;57391;51.306;22.680;2023-08-21T13:55:57;100095.20;;;31.30
70050;BMP180;57391;51.306;22.680;2023-08-21T13:58:25;100092.60;;;31.30
70050;BMP180;57391;51.306;22.680;2023-08-21T14:00:52;100089.00;;;31.30
70050;BMP180;57391;51.306;22.680;2023-08-21T14:03:19;100087.40;;;31.30
70050;BMP180;57391;51.306;22.680;2023-08-21T14:05:46;100089.80;;;31.30
70050;BMP180;57391;51.306;22.680;2023-08-21T14:08:13;100085.00;;;31.30
70050;BMP180;57391;51.306;22.680;2023-08-21T14:10:39;100082.00;;;31.20